createdAt,value
2023-05-16T00:02:07.950Z,18.01
2023-05-16T00:04:56.384Z,15.23
2023-05-16T00:07:33.952Z,15.14
2023-05-16T00:10:12.272Z,15.48
2023-05-16T00:12:43.047Z,17.72
2023-05-16T00:15:16.828Z,16.92
2023-05-16T00:18:04.713Z,17.82
2023-05-16T00:20:34.104Z,14.96
2023-05-16T00:23:10.973Z,17.72
2023-05-16T00:25:54.342Z,16.65
2023-05-16T00:28:29.557Z,15.17
2023-05-16T00:31:13.683Z,17.68
2023-05-16T00:33:43.587Z,16.38
2023-05-16T00:36:11.729Z,17.60
2023-05-16T00:38:41.280Z,14.92
2023-05-16T00:41:09.266Z,15.18
2023-05-16T00:43:40.393Z,16.51
2023-05-16T00:46:11.821Z,17.39
2023-05-16T00:48:43.500Z,14.72
2023-05-16T00:51:15.516Z,14.89
2023-05-16T00:53:54.606Z,14.23
2023-05-16T00:56:36.928Z,16.51
2023-05-16T00:59:17.364Z,16.18
2023-05-16T01:01:52.776Z,14.71
2023-05-16T01:04:51.843Z,14.15
2023-05-16T01:08:28.553Z,16.13
2023-05-16T01:11:05.416Z,14.24
2023-05-16T01:13:42.750Z,15.68
2023-05-16T01:16:20.168Z,15.77
2023-05-16T01:18:54.025Z,14.09
2023-05-16T01:21:32.881Z,15.72
2023-05-16T01:24:49.861Z,15.07
2023-05-16T01:27:26.439Z,15.95
2023-05-16T01:30:05.899Z,16.89
2023-05-16T01:32:37.548Z,16.86
2023-05-16T01:35:06.127Z,16.84
2023-05-16T01:37:37.468Z,16.80
2023-05-16T01:40:09.737Z,16.76
2023-05-16T01:42:41.084Z,16.24
2023-05-16T01:45:12.488Z,16.46
2023-05-16T01:47:41.471Z,16.28
2023-05-16T01:50:11.142Z,16.51
2023-05-16T01:52:42.200Z,16.46
2023-05-16T01:55:11.691Z,16.44
2023-05-16T01:57:40.893Z,16.41
2023-05-16T02:00:09.903Z,16.35
2023-05-16T02:02:37.795Z,16.00
2023-05-16T02:05:07.477Z,15.50
2023-05-16T02:07:35.544Z,15.88
2023-05-16T02:10:03.400Z,15.03
2023-05-16T02:12:31.374Z,15.40
2023-05-16T02:15:00.674Z,14.78
2023-05-16T02:17:29.233Z,15.37
2023-05-16T02:19:57.737Z,15.13
2023-05-16T02:22:26.317Z,14.88
2023-05-16T02:24:54.188Z,15.68
2023-05-16T02:27:22.058Z,15.59
2023-05-16T02:29:50.021Z,15.50
2023-05-16T02:32:19.308Z,14.82
2023-05-16T02:34:47.317Z,14.75
2023-05-16T02:37:15.323Z,14.14
2023-05-16T02:39:43.043Z,15.29
2023-05-16T02:42:10.703Z,15.24
2023-05-16T02:44:38.464Z,15.19
2023-05-16T02:47:06.166Z,15.17
2023-05-16T02:49:36.283Z,15.20
2023-05-16T02:52:04.146Z,15.18
2023-05-16T02:54:31.920Z,14.67
2023-05-16T02:56:59.639Z,15.13
2023-05-16T02:59:27.737Z,15.14
2023-05-16T03:01:55.452Z,14.89
2023-05-16T03:04:23.876Z,14.96
2023-05-16T03:06:52.899Z,15.14
2023-05-16T03:09:20.682Z,15.12
2023-05-16T03:11:48.432Z,15.12
2023-05-16T03:14:16.396Z,15.17
2023-05-16T03:16:49.231Z,15.19
2023-05-16T03:19:17.205Z,14.18
2023-05-16T03:21:45.132Z,14.55
2023-05-16T03:24:14.279Z,15.22
2023-05-16T03:26:42.180Z,15.29
2023-05-16T03:29:10.008Z,15.10
2023-05-16T03:31:37.766Z,15.34
2023-05-16T03:34:05.738Z,15.39
2023-05-16T03:36:33.430Z,15.08
2023-05-16T03:39:01.188Z,15.17
2023-05-16T03:41:30.357Z,15.36
2023-05-16T03:43:58.045Z,15.36
2023-05-16T03:46:25.993Z,14.86
2023-05-16T03:48:53.794Z,15.32
2023-05-16T03:51:21.626Z,15.31
2023-05-16T03:53:49.379Z,15.04
2023-05-16T04:00:07.925Z,12.32
2023-05-16T04:10:58.578Z,15.19
2023-05-16T04:14:20.904Z,14.83
2023-05-16T04:24:44.010Z,14.31
2023-05-16T04:31:05.111Z,12.78
2023-05-16T05:13:29.177Z,13.35
2023-05-16T05:30:54.067Z,15.22
2023-05-16T05:33:22.024Z,14.97
2023-05-16T05:36:14.334Z,15.38
2023-05-16T05:38:43.536Z,15.16
2023-05-16T05:41:11.943Z,15.31
2023-05-16T05:43:39.665Z,15.11
2023-05-16T05:46:08.383Z,15.46
2023-05-16T05:48:36.144Z,15.45
2023-05-16T05:51:06.258Z,15.67
2023-05-16T05:53:33.957Z,15.45
2023-05-16T05:56:03.115Z,15.66
2023-05-16T05:58:45.355Z,15.63
2023-05-16T06:01:13.109Z,16.13
2023-05-16T06:03:41.076Z,15.89
2023-05-16T06:06:10.602Z,15.55
2023-05-16T06:08:38.360Z,16.71
2023-05-16T06:11:07.558Z,17.11
2023-05-16T06:13:35.478Z,17.76
2023-05-16T06:16:03.278Z,18.48
2023-05-16T06:18:31.099Z,19.02
2023-05-16T06:20:59.342Z,19.56
2023-05-16T06:23:27.263Z,20.14
2023-05-16T06:25:55.071Z,20.63
2023-05-16T06:28:25.052Z,20.82
2023-05-16T06:30:52.863Z,21.25
2023-05-16T06:33:20.680Z,21.80
2023-05-16T06:35:49.009Z,22.14
2023-05-16T06:38:16.824Z,21.89
2023-05-16T06:40:44.533Z,20.36
2023-05-16T06:43:13.357Z,22.49
2023-05-16T06:45:42.696Z,21.56
2023-05-16T06:48:11.113Z,21.02
2023-05-16T06:50:38.998Z,23.66
2023-05-16T06:53:07.412Z,23.41
2023-05-16T06:55:35.582Z,23.77
2023-05-16T06:58:03.468Z,24.14
2023-05-16T07:00:31.366Z,24.45
2023-05-16T07:03:00.744Z,24.74
2023-05-16T07:05:28.720Z,24.51
2023-05-16T07:07:56.762Z,23.63
2023-05-16T07:10:24.886Z,24.23
2023-05-16T07:12:52.676Z,24.69
2023-05-16T07:15:20.598Z,25.26
2023-05-16T07:17:48.391Z,25.19
2023-05-16T07:20:20.428Z,26.63
2023-05-16T07:22:57.374Z,27.18
2023-05-16T07:25:25.869Z,26.94
2023-05-16T07:27:54.248Z,27.02
2023-05-16T07:30:22.047Z,26.88
2023-05-16T07:32:52.592Z,26.34
2023-05-16T07:35:22.225Z,25.87
2023-05-16T07:37:49.997Z,24.91
2023-05-16T07:40:25.735Z,24.15
2023-05-16T07:42:53.679Z,24.07
2023-05-16T07:45:39.837Z,23.46
2023-05-16T07:48:08.794Z,23.07
2023-05-16T07:50:38.265Z,22.75
2023-05-16T07:53:06.254Z,22.21
2023-05-16T07:55:34.280Z,22.10
2023-05-16T07:58:02.040Z,21.85
2023-05-16T08:00:30.144Z,21.53
2023-05-16T08:03:01.262Z,20.92
2023-05-16T08:05:29.459Z,21.12
2023-05-16T08:07:58.956Z,20.77
2023-05-16T08:10:27.022Z,20.62
2023-05-16T08:12:55.024Z,20.92
2023-05-16T08:15:23.242Z,22.77
2023-05-16T08:17:51.232Z,23.01
2023-05-16T08:20:19.294Z,24.73
2023-05-16T08:22:47.085Z,25.86
2023-05-16T08:25:16.354Z,26.20
2023-05-16T08:27:45.666Z,26.70
2023-05-16T08:30:14.731Z,28.38
2023-05-16T08:33:21.612Z,29.28
2023-05-16T08:35:50.053Z,29.55
2023-05-16T08:38:17.963Z,30.05
2023-05-16T08:40:47.183Z,30.43
2023-05-16T08:43:37.160Z,31.00
2023-05-16T08:46:05.193Z,31.54
2023-05-16T08:48:35.120Z,32.13
2023-05-16T08:51:03.231Z,32.10
2023-05-16T08:53:33.818Z,33.07
2023-05-16T08:56:03.473Z,32.10
2023-05-16T08:58:31.221Z,32.46
2023-05-16T09:00:59.273Z,31.34
2023-05-16T09:03:28.953Z,30.29
2023-05-16T09:05:57.823Z,29.39
2023-05-16T09:08:26.232Z,27.95
2023-05-16T09:10:54.717Z,27.43
2023-05-16T09:13:25.051Z,26.94
2023-05-16T09:16:11.311Z,26.19
2023-05-16T09:18:39.312Z,25.50
2023-05-16T09:21:07.644Z,25.93
2023-05-16T09:23:37.191Z,26.42
2023-05-16T09:26:08.004Z,26.71
2023-05-16T09:28:59.889Z,27.25
2023-05-16T09:31:31.749Z,27.72
2023-05-16T09:33:59.819Z,27.97
2023-05-16T09:36:27.535Z,27.88
2023-05-16T09:38:55.684Z,28.79
2023-05-16T09:41:23.662Z,28.59
2023-05-16T09:43:52.840Z,30.15
2023-05-16T09:46:20.741Z,31.25
2023-05-16T09:48:49.054Z,32.15
2023-05-16T09:51:16.929Z,32.62
2023-05-16T09:53:52.732Z,31.80
2023-05-16T09:56:21.557Z,31.69
2023-05-16T09:58:49.472Z,33.38
2023-05-16T10:01:18.921Z,34.26
2023-05-16T10:03:53.974Z,34.81
2023-05-16T10:06:22.904Z,34.14
2023-05-16T10:08:51.687Z,34.03
2023-05-16T10:11:19.568Z,32.83
2023-05-16T10:13:50.449Z,33.33
2023-05-16T10:16:19.655Z,33.76
2023-05-16T10:18:47.670Z,32.30
2023-05-16T10:21:16.572Z,34.86
2023-05-16T10:23:51.671Z,34.75
2023-05-16T10:26:19.544Z,36.11
2023-05-16T10:28:47.501Z,36.05
2023-05-16T10:31:15.701Z,36.80
2023-05-16T10:33:46.052Z,35.27
2023-05-16T10:36:15.957Z,33.98
2023-05-16T10:38:43.943Z,32.03
2023-05-16T10:41:12.966Z,32.32
2023-05-16T10:43:43.067Z,31.64
2023-05-16T10:46:12.424Z,30.61
2023-05-16T10:48:41.331Z,29.80
2023-05-16T10:51:41.439Z,30.03
2023-05-16T10:54:15.353Z,29.68
2023-05-16T10:56:43.685Z,29.01
2023-05-16T10:59:28.532Z,30.80
2023-05-16T11:01:56.795Z,30.99
2023-05-16T11:04:35.117Z,30.43
2023-05-16T11:07:04.363Z,29.77
2023-05-16T11:09:32.152Z,27.77
2023-05-16T11:12:01.256Z,29.43
2023-05-16T11:14:32.046Z,28.73
2023-05-16T11:17:03.590Z,28.48
2023-05-16T11:19:35.804Z,26.27
2023-05-16T11:22:09.458Z,28.35
2023-05-16T11:24:38.150Z,28.26
2023-05-16T11:29:47.552Z,28.33
2023-05-16T11:32:15.947Z,27.06
2023-05-16T11:34:46.304Z,26.00
2023-05-16T11:37:16.330Z,26.48
2023-05-16T11:39:44.546Z,24.74
2023-05-16T11:42:13.357Z,26.65
2023-05-16T11:44:41.998Z,26.82
2023-05-16T11:47:10.125Z,26.88
2023-05-16T11:49:38.337Z,25.65
2023-05-16T11:52:06.681Z,25.22
2023-05-16T11:54:36.559Z,27.17
2023-05-16T11:57:04.635Z,25.33
2023-05-16T11:59:32.783Z,25.91
2023-05-16T12:02:05.317Z,26.54
2023-05-16T12:04:33.683Z,26.20
2023-05-16T12:07:02.643Z,25.32
2023-05-16T12:09:31.186Z,25.57
2023-05-16T12:12:00.884Z,24.77
2023-05-16T12:14:28.940Z,25.50
2023-05-16T12:16:57.147Z,23.50
2023-05-16T12:19:25.549Z,25.31
2023-05-16T12:21:54.628Z,25.25
2023-05-16T12:24:23.116Z,22.46
2023-05-16T12:26:51.111Z,23.50
2023-05-16T12:29:20.614Z,23.95
2023-05-16T12:31:51.379Z,24.81
2023-05-16T12:34:21.522Z,22.07
2023-05-16T12:36:53.062Z,23.51
2023-05-16T12:39:21.190Z,22.82
2023-05-16T12:41:49.278Z,23.00
2023-05-16T12:44:19.892Z,23.86
2023-05-16T12:46:52.032Z,23.38
2023-05-16T12:49:21.942Z,21.49
2023-05-16T12:51:51.213Z,22.66
2023-05-16T12:54:19.401Z,22.64
2023-05-16T12:56:47.275Z,22.95
2023-05-16T12:59:15.205Z,22.95
2023-05-16T13:01:44.465Z,21.91
2023-05-16T13:04:16.916Z,24.34
2023-05-16T13:06:58.452Z,23.86
2023-05-16T13:09:32.095Z,22.36
2023-05-16T13:12:00.865Z,22.79
2023-05-16T13:14:28.829Z,23.89
2023-05-16T13:16:56.588Z,24.08
2023-05-16T13:19:26.258Z,24.53
2023-05-16T13:21:54.195Z,24.43
2023-05-16T13:24:22.008Z,24.20
2023-05-16T13:26:49.884Z,22.44
2023-05-16T13:29:17.849Z,23.03
2023-05-16T13:31:45.885Z,23.63
2023-05-16T13:34:13.742Z,23.10
2023-05-16T13:36:53.655Z,23.15
2023-05-16T13:39:23.053Z,23.23
2023-05-16T13:41:51.533Z,23.77
2023-05-16T13:44:19.561Z,22.81
2023-05-16T13:46:47.590Z,23.45
2023-05-16T13:49:15.956Z,23.49
2023-05-16T13:51:45.606Z,21.58
2023-05-16T13:54:13.731Z,21.99
2023-05-16T13:56:42.127Z,22.83
2023-05-16T13:59:12.340Z,22.28
2023-05-16T14:01:43.421Z,22.02
2023-05-16T14:04:11.986Z,22.11
2023-05-16T14:06:40.142Z,23.62
2023-05-16T14:09:09.638Z,23.76
2023-05-16T14:11:37.532Z,22.46
2023-05-16T14:14:06.306Z,23.69
2023-05-16T14:16:34.455Z,23.87
2023-05-16T14:19:03.096Z,22.58
2023-05-16T14:21:31.212Z,24.39
2023-05-16T14:23:59.348Z,24.69
2023-05-16T14:26:31.304Z,23.69
2023-05-16T14:29:01.637Z,24.13
2023-05-16T14:31:36.578Z,23.22
2023-05-16T14:34:04.777Z,23.38
2023-05-16T14:36:33.145Z,22.42
2023-05-16T14:39:04.275Z,23.13
2023-05-16T14:41:33.626Z,23.88
2023-05-16T14:44:01.887Z,24.03
2023-05-16T14:46:29.870Z,23.77
2023-05-16T14:48:57.943Z,22.67
2023-05-16T14:51:25.928Z,22.20
2023-05-16T14:53:53.954Z,21.95
2023-05-16T14:56:22.748Z,23.79
2023-05-16T14:58:52.004Z,22.57
2023-05-16T15:01:20.178Z,21.04
2023-05-16T15:03:55.468Z,22.65
2023-05-16T15:06:24.598Z,22.54
2023-05-16T15:08:52.675Z,22.37
2023-05-16T15:11:21.788Z,22.07
2023-05-16T15:13:51.101Z,22.78
2023-05-16T15:16:19.107Z,22.74
2023-05-16T15:18:47.044Z,22.14
2023-05-16T15:21:14.918Z,22.81
2023-05-16T15:23:43.345Z,22.67
2023-05-16T15:26:11.314Z,22.44
2023-05-16T15:28:39.184Z,22.00
2023-05-16T15:31:08.532Z,22.71
2023-05-16T15:33:36.327Z,22.65
2023-05-16T15:36:04.227Z,20.99
2023-05-16T15:38:32.128Z,21.77
2023-05-16T15:41:15.901Z,21.67
2023-05-16T15:43:47.771Z,21.75
2023-05-16T15:46:16.979Z,19.87
2023-05-16T15:48:45.017Z,21.66
2023-05-16T15:51:13.141Z,20.38
2023-05-16T15:53:41.223Z,21.21
2023-05-16T15:56:09.502Z,20.52
2023-05-16T15:58:37.353Z,21.03
2023-05-16T16:01:05.406Z,20.99
2023-05-16T16:03:34.701Z,19.21
2023-05-16T16:06:02.599Z,20.12
2023-05-16T16:08:30.403Z,21.63
2023-05-16T16:10:58.594Z,20.95
2023-05-16T16:13:26.587Z,19.47
2023-05-16T16:15:54.606Z,19.75
2023-05-16T16:18:22.473Z,19.14
2023-05-16T16:20:53.001Z,19.54
2023-05-16T16:23:21.744Z,20.34
2023-05-16T16:25:50.326Z,19.83
2023-05-16T16:28:18.827Z,21.07
2023-05-16T16:30:50.289Z,20.00
2023-05-16T16:33:18.389Z,21.07
2023-05-16T16:35:46.735Z,20.50
2023-05-16T16:38:16.574Z,21.07
2023-05-16T16:40:44.979Z,20.31
2023-05-16T16:43:13.059Z,18.88
2023-05-16T16:45:41.273Z,18.94
2023-05-16T16:48:10.867Z,19.45
2023-05-16T16:50:39.238Z,20.52
2023-05-16T16:53:07.773Z,20.59
2023-05-16T16:55:45.067Z,20.07
2023-05-16T16:58:13.075Z,20.64
2023-05-16T17:01:30.343Z,20.18
2023-05-16T17:04:06.362Z,21.18
2023-05-16T17:06:36.161Z,19.55
2023-05-16T17:09:07.528Z,21.06
2023-05-16T17:11:40.982Z,21.00
2023-05-16T17:14:10.932Z,20.32
2023-05-16T17:16:41.116Z,20.80
2023-05-16T17:19:24.767Z,20.16
2023-05-16T17:22:10.679Z,18.94
2023-05-16T17:24:42.441Z,18.27
2023-05-16T17:27:47.098Z,20.08
2023-05-16T17:32:57.737Z,19.41
2023-05-16T17:35:25.951Z,18.98
2023-05-16T17:37:55.362Z,20.43
2023-05-16T17:40:23.547Z,20.23
2023-05-16T17:42:52.893Z,20.34
2023-05-16T17:45:39.310Z,17.96
2023-05-16T17:48:08.018Z,20.01
2023-05-16T17:50:37.378Z,18.41
2023-05-16T17:53:13.082Z,17.78
2023-05-16T17:55:41.481Z,17.69
2023-05-16T17:58:10.905Z,19.92
2023-05-16T18:00:56.620Z,19.87
2023-05-16T18:03:25.006Z,18.90
2023-05-16T18:05:53.086Z,19.71
2023-05-16T18:08:56.138Z,19.72
2023-05-16T18:12:03.521Z,19.66
2023-05-16T18:14:55.506Z,19.56
2023-05-16T18:17:23.477Z,17.74
2023-05-16T18:19:55.255Z,18.68
2023-05-16T18:22:44.216Z,18.31
2023-05-16T18:25:12.462Z,18.69
2023-05-16T18:27:40.656Z,17.72
2023-05-16T18:30:13.306Z,19.26
2023-05-16T18:32:43.393Z,19.11
2023-05-16T18:35:13.141Z,19.20
2023-05-16T18:37:44.078Z,18.86
2023-05-16T18:40:13.920Z,17.65
2023-05-16T18:42:42.925Z,19.12
2023-05-16T18:45:13.040Z,19.11
2023-05-16T18:47:41.416Z,17.02
2023-05-16T18:50:15.711Z,17.51
2023-05-16T18:53:05.108Z,18.42
2023-05-16T18:55:33.838Z,18.53
2023-05-16T18:58:02.559Z,18.00
2023-05-16T19:00:32.064Z,18.85
2023-05-16T19:03:02.590Z,18.76
2023-05-16T19:05:34.211Z,18.52
2023-05-16T19:08:03.520Z,18.69
2023-05-16T19:10:32.141Z,18.63
2023-05-16T19:13:07.184Z,17.87
2023-05-16T19:15:36.785Z,18.55
2023-05-16T19:18:05.037Z,18.52
2023-05-16T19:20:33.966Z,18.09
2023-05-16T19:23:02.482Z,18.44
2023-05-16T19:25:30.378Z,17.18
2023-05-16T19:27:58.517Z,17.90
2023-05-16T19:30:26.483Z,17.40
2023-05-16T19:32:56.078Z,18.37
2023-05-16T19:35:23.957Z,18.20
2023-05-16T19:37:51.853Z,18.32
2023-05-16T19:40:20.071Z,18.30
2023-05-16T19:46:36.158Z,17.46
2023-05-16T19:49:05.560Z,17.44
2023-05-16T19:51:41.216Z,17.58
2023-05-16T19:54:10.710Z,18.16
2023-05-16T19:56:38.576Z,18.10
2023-05-16T19:59:06.541Z,17.73
2023-05-16T20:01:34.649Z,18.06
2023-05-16T20:04:02.636Z,18.02
2023-05-16T20:06:34.478Z,17.98
2023-05-16T20:09:20.675Z,17.94
2023-05-16T20:11:50.811Z,17.93
2023-05-16T20:14:20.425Z,17.53
2023-05-16T20:16:48.464Z,17.87
2023-05-16T20:19:18.937Z,17.57
2023-05-16T20:21:48.578Z,16.86
2023-05-16T20:24:20.661Z,17.83
2023-05-16T20:26:48.573Z,17.80
2023-05-16T20:29:16.648Z,17.79
2023-05-16T20:31:47.664Z,17.73
2023-05-16T20:34:15.787Z,17.17
2023-05-16T20:36:45.967Z,17.34
2023-05-16T20:39:15.489Z,17.57
2023-05-16T20:41:43.562Z,16.88
2023-05-16T20:44:11.586Z,17.44
2023-05-16T20:47:05.354Z,17.37
2023-05-16T20:49:33.247Z,17.23
2023-05-16T20:52:04.803Z,15.57
2023-05-16T20:54:45.366Z,17.13
2023-05-16T20:57:13.691Z,17.13
2023-05-16T20:59:48.816Z,15.95
2023-05-16T21:02:19.971Z,16.95
2023-05-16T21:04:57.442Z,17.04
2023-05-16T21:07:27.813Z,15.98
2023-05-16T21:10:00.598Z,17.05
2023-05-16T21:12:40.794Z,17.06
2023-05-16T21:15:10.297Z,17.03
2023-05-16T21:17:39.502Z,17.01
2023-05-16T21:20:09.555Z,16.97
2023-05-16T21:22:39.586Z,16.92
2023-05-16T21:25:12.482Z,16.86
2023-05-16T21:27:40.356Z,16.51
2023-05-16T21:30:09.431Z,16.71
2023-05-16T21:32:37.307Z,16.12
2023-05-16T21:35:06.829Z,16.92
2023-05-16T21:37:34.798Z,16.94
2023-05-16T21:40:02.732Z,16.96
2023-05-16T21:42:33.126Z,16.94
2023-05-16T21:45:02.262Z,16.94
2023-05-16T21:47:30.195Z,16.90
2023-05-16T21:49:58.198Z,16.47
2023-05-16T21:52:26.084Z,16.79
2023-05-16T21:54:54.549Z,16.29
2023-05-16T21:57:22.321Z,16.63
2023-05-16T21:59:51.936Z,16.55
2023-05-16T22:02:23.746Z,16.46
2023-05-16T22:04:53.242Z,16.38
2023-05-16T22:07:21.179Z,15.98
2023-05-16T22:09:53.556Z,16.21
2023-05-16T22:12:23.888Z,16.15
2023-05-16T22:14:53.336Z,16.04
2023-05-16T22:17:21.160Z,15.98
2023-05-16T22:19:50.399Z,15.93
2023-05-16T22:22:18.225Z,14.66
2023-05-16T22:24:48.424Z,15.77
2023-05-16T22:27:16.412Z,15.33
2023-05-16T22:29:44.392Z,15.65
2023-05-16T22:32:14.920Z,15.38
2023-05-16T22:34:42.927Z,15.54
2023-05-16T22:37:10.904Z,15.29
2023-05-16T22:39:38.660Z,15.47
2023-05-16T22:42:07.274Z,15.25
2023-05-16T22:44:35.381Z,14.84
2023-05-16T22:47:03.571Z,14.58
2023-05-16T22:49:32.943Z,14.80
2023-05-16T22:52:00.754Z,15.23
2023-05-16T22:54:30.217Z,15.20
2023-05-16T22:56:58.396Z,14.24
2023-05-16T22:59:26.338Z,15.14
2023-05-16T23:01:54.146Z,14.66
2023-05-16T23:04:23.688Z,15.07
2023-05-16T23:06:52.936Z,15.03
2023-05-16T23:09:21.303Z,15.01
2023-05-16T23:11:49.249Z,14.99
2023-05-16T23:14:17.414Z,14.97
2023-05-16T23:16:45.225Z,14.92
2023-05-16T23:19:13.194Z,14.50
2023-05-16T23:21:41.126Z,14.71
2023-05-16T23:24:10.841Z,14.20
2023-05-16T23:26:38.725Z,14.78
2023-05-16T23:29:07.041Z,14.50
2023-05-16T23:31:34.916Z,14.71
2023-05-16T23:34:05.885Z,14.66
2023-05-16T23:36:33.782Z,14.65
2023-05-16T23:39:01.687Z,14.51
2023-05-16T23:44:43.433Z,13.33
2023-05-16T23:58:28.733Z,12.50
